sensor_id;sensor_type;location;lat;lon;timestamp;temperature;humidity
22065;DHT22;11197;53.110;8.468;2023-02-15T00:01:36;3.00;99.90
22065;DHT22;11197;53.110;8.468;2023-02-15T00:04:02;3.00;99.90
22065;DHT22;11197;53.110;8.468;2023-02-15T00:06:28;3.00;99.90
22065;DHT22;11197;53.110;8.468;2023-02-15T00:08:54;3.00;99.90
22065;DHT22;11197;53.110;8.468;2023-02-15T00:11:21;2.90;99.90
22065;DHT22;11197;53.110;8.468;2023-02-15T00:14:12;2.90;99.90
22065;DHT22;11197;53.110;8.468;2023-02-15T00:16:40;2.90;99.90
22065;DHT22;11197;53.110;8.468;2023-02-15T00:19:06;2.90;99.90
22065;DHT22;11197;53.110;8.468;2023-02-15T00:21:33;2.90;99.90
22065;DHT22;11197;53.110;8.468;2023-02-15T00:24:01;2.90;99.90
22065;DHT22;11197;53.110;8.468;2023-02-15T00:26:28;2.80;99.90
22065;DHT22;11197;53.110;8.468;2023-02-15T00:28:54;2.80;99.90
22065;DHT22;11197;53.110;8.468;2023-02-15T00:31:20;2.80;99.90
22065;DHT22;11197;53.110;8.468;2023-02-15T00:33:46;2.80;99.90
22065;DHT22;11197;53.110;8.468;2023-02-15T00:36:13;2.80;99.90
22065;DHT22;11197;53.110;8.468;2023-02-15T00:38:39;2.80;99.90
22065;DHT22;11197;53.110;8.468;2023-02-15T00:41:06;2.80;99.90
22065;DHT22;11197;53.110;8.468;2023-02-15T00:43:34;2.70;99.90
22065;DHT22;11197;53.110;8.468;2023-02-15T00:46:01;2.70;99.90
22065;DHT22;11197;53.110;8.468;2023-02-15T00:48:27;2.70;99.90
22065;DHT22;11197;53.110;8.468;2023-02-15T00:50:56;2.70;99.90
22065;DHT22;11197;53.110;8.468;2023-02-15T00:53:22;2.70;99.90
22065;DHT22;11197;53.110;8.468;2023-02-15T00:55:48;2.70;99.90
22065;DHT22;11197;53.110;8.468;2023-02-15T00:58:15;2.70;99.90
22065;DHT22;11197;53.110;8.468;2023-02-15T01:00:43;2.60;99.90
22065;DHT22;11197;53.110;8.468;2023-02-15T01:03:10;2.60;99.90
22065;DHT22;11197;53.110;8.468;2023-02-15T01:05:36;2.60;99.90
22065;DHT22;11197;53.110;8.468;2023-02-15T01:08:03;2.60;99.90
22065;DHT22;11197;53.110;8.468;2023-02-15T01:10:30;2.60;99.90
22065;DHT22;11197;53.110;8.468;2023-02-15T01:12:56;2.60;99.90
22065;DHT22;11197;53.110;8.468;2023-02-15T01:15:23;2.60;99.90
22065;DHT22;11197;53.110;8.468;2023-02-15T01:17:49;2.60;99.90
22065;DHT22;11197;53.110;8.468;2023-02-15T01:20:25;2.60;99.90
22065;DHT22;11197;53.110;8.468;2023-02-15T01:22:51;2.50;99.90
22065;DHT22;11197;53.110;8.468;2023-02-15T01:25:19;2.50;99.90
22065;DHT22;11197;53.110;8.468;2023-02-15T01:27:45;2.50;99.90
22065;DHT22;11197;53.110;8.468;2023-02-15T01:30:13;2.50;99.90
22065;DHT22;11197;53.110;8.468;2023-02-15T01:32:39;2.50;99.90
22065;DHT22;11197;53.110;8.468;2023-02-15T01:35:07;2.50;99.90
22065;DHT22;11197;53.110;8.468;2023-02-15T01:37:34;2.50;99.90
22065;DHT22;11197;53.110;8.468;2023-02-15T01:40:00;2.40;99.90
22065;DHT22;11197;53.110;8.468;2023-02-15T01:42:28;2.40;99.90
22065;DHT22;11197;53.110;8.468;2023-02-15T01:44:59;2.40;99.90
22065;DHT22;11197;53.110;8.468;2023-02-15T01:47:58;2.40;99.90
22065;DHT22;11197;53.110;8.468;2023-02-15T01:50:35;2.40;99.90
22065;DHT22;11197;53.110;8.468;2023-02-15T01:53:10;2.40;99.90
22065;DHT22;11197;53.110;8.468;2023-02-15T01:55:52;2.40;99.90
22065;DHT22;11197;53.110;8.468;2023-02-15T01:58:20;2.30;99.90
22065;DHT22;11197;53.110;8.468;2023-02-15T02:00:46;2.30;99.90
22065;DHT22;11197;53.110;8.468;2023-02-15T02:03:13;2.30;99.90
22065;DHT22;11197;53.110;8.468;2023-02-15T02:05:39;2.30;99.90
22065;DHT22;11197;53.110;8.468;2023-02-15T02:08:06;2.30;99.90
22065;DHT22;11197;53.110;8.468;2023-02-15T02:10:33;2.20;99.90
22065;DHT22;11197;53.110;8.468;2023-02-15T02:13:03;2.30;99.90
22065;DHT22;11197;53.110;8.468;2023-02-15T02:16:00;2.20;99.90
22065;DHT22;11197;53.110;8.468;2023-02-15T02:29:56;2.20;99.90
22065;DHT22;11197;53.110;8.468;2023-02-15T02:38:45;2.20;99.90
22065;DHT22;11197;53.110;8.468;2023-02-15T02:41:56;2.20;99.90
22065;DHT22;11197;53.110;8.468;2023-02-15T02:47:34;2.10;99.90
22065;DHT22;11197;53.110;8.468;2023-02-15T02:50:05;2.10;99.90
22065;DHT22;11197;53.110;8.468;2023-02-15T02:52:39;2.00;99.90
22065;DHT22;11197;53.110;8.468;2023-02-15T02:58:46;2.00;99.90
22065;DHT22;11197;53.110;8.468;2023-02-15T03:04:10;2.00;99.90
22065;DHT22;11197;53.110;8.468;2023-02-15T03:07:00;1.90;99.90
22065;DHT22;11197;53.110;8.468;2023-02-15T03:09:31;1.90;99.90
22065;DHT22;11197;53.110;8.468;2023-02-15T03:12:14;1.90;99.90
22065;DHT22;11197;53.110;8.468;2023-02-15T03:14:51;1.90;99.90
22065;DHT22;11197;53.110;8.468;2023-02-15T03:17:20;1.80;99.90
22065;DHT22;11197;53.110;8.468;2023-02-15T03:19:50;1.90;99.90
22065;DHT22;11197;53.110;8.468;2023-02-15T03:22:33;1.80;99.90
22065;DHT22;11197;53.110;8.468;2023-02-15T03:25:19;1.80;99.90
22065;DHT22;11197;53.110;8.468;2023-02-15T03:27:49;1.80;99.90
22065;DHT22;11197;53.110;8.468;2023-02-15T03:30:21;1.80;99.90
22065;DHT22;11197;53.110;8.468;2023-02-15T03:32:48;1.80;99.90
22065;DHT22;11197;53.110;8.468;2023-02-15T03:35:15;1.80;99.90
22065;DHT22;11197;53.110;8.468;2023-02-15T03:37:49;1.80;99.90
22065;DHT22;11197;53.110;8.468;2023-02-15T03:40:29;1.80;99.90
22065;DHT22;11197;53.110;8.468;2023-02-15T03:43:22;1.80;99.90
22065;DHT22;11197;53.110;8.468;2023-02-15T03:45:52;1.80;99.90
22065;DHT22;11197;53.110;8.468;2023-02-15T03:48:35;1.70;99.90
22065;DHT22;11197;53.110;8.468;2023-02-15T03:51:10;1.70;99.90
22065;DHT22;11197;53.110;8.468;2023-02-15T03:53:57;1.70;99.90
22065;DHT22;11197;53.110;8.468;2023-02-15T03:56:24;1.60;99.90
22065;DHT22;11197;53.110;8.468;2023-02-15T03:58:50;1.60;99.90
22065;DHT22;11197;53.110;8.468;2023-02-15T04:01:48;1.60;99.90
22065;DHT22;11197;53.110;8.468;2023-02-15T04:04:31;1.60;99.90
22065;DHT22;11197;53.110;8.468;2023-02-15T04:06:58;1.60;99.90
22065;DHT22;11197;53.110;8.468;2023-02-15T04:09:24;1.60;99.90
22065;DHT22;11197;53.110;8.468;2023-02-15T04:12:08;1.60;99.90
22065;DHT22;11197;53.110;8.468;2023-02-15T04:14:34;1.50;99.90
22065;DHT22;11197;53.110;8.468;2023-02-15T04:17:18;1.60;99.90
22065;DHT22;11197;53.110;8.468;2023-02-15T04:19:44;1.50;99.90
22065;DHT22;11197;53.110;8.468;2023-02-15T04:22:28;1.50;99.90
22065;DHT22;11197;53.110;8.468;2023-02-15T04:25:12;1.50;99.90
22065;DHT22;11197;53.110;8.468;2023-02-15T04:27:40;1.50;99.90
22065;DHT22;11197;53.110;8.468;2023-02-15T04:30:07;1.50;99.90
22065;DHT22;11197;53.110;8.468;2023-02-15T04:32:34;1.50;99.90
22065;DHT22;11197;53.110;8.468;2023-02-15T04:35:00;1.50;99.90
22065;DHT22;11197;53.110;8.468;2023-02-15T04:37:26;1.60;99.90
22065;DHT22;11197;53.110;8.468;2023-02-15T04:39:52;1.60;99.90
22065;DHT22;11197;53.110;8.468;2023-02-15T04:42:17;1.50;99.90
22065;DHT22;11197;53.110;8.468;2023-02-15T04:44:43;1.50;99.90
22065;DHT22;11197;53.110;8.468;2023-02-15T04:47:09;1.50;99.90
22065;DHT22;11197;53.110;8.468;2023-02-15T04:49:35;1.50;99.90
22065;DHT22;11197;53.110;8.468;2023-02-15T04:52:01;1.50;99.90
22065;DHT22;11197;53.110;8.468;2023-02-15T04:54:27;1.50;99.90
22065;DHT22;11197;53.110;8.468;2023-02-15T04:56:53;1.50;99.90
22065;DHT22;11197;53.110;8.468;2023-02-15T04:59:18;1.50;99.90
22065;DHT22;11197;53.110;8.468;2023-02-15T05:01:44;1.50;99.90
22065;DHT22;11197;53.110;8.468;2023-02-15T05:04:10;1.40;99.90
22065;DHT22;11197;53.110;8.468;2023-02-15T05:06:36;1.40;99.90
22065;DHT22;11197;53.110;8.468;2023-02-15T05:09:02;1.40;99.90
22065;DHT22;11197;53.110;8.468;2023-02-15T05:11:28;1.40;99.90
22065;DHT22;11197;53.110;8.468;2023-02-15T05:13:54;1.40;99.90
22065;DHT22;11197;53.110;8.468;2023-02-15T05:16:20;1.40;99.90
22065;DHT22;11197;53.110;8.468;2023-02-15T05:18:46;1.40;99.90
22065;DHT22;11197;53.110;8.468;2023-02-15T05:21:11;1.40;99.90
22065;DHT22;11197;53.110;8.468;2023-02-15T05:23:39;1.30;99.90
22065;DHT22;11197;53.110;8.468;2023-02-15T05:26:05;1.30;99.90
22065;DHT22;11197;53.110;8.468;2023-02-15T05:28:49;1.30;99.90
22065;DHT22;11197;53.110;8.468;2023-02-15T05:31:17;1.30;99.90
22065;DHT22;11197;53.110;8.468;2023-02-15T05:33:44;1.30;99.90
22065;DHT22;11197;53.110;8.468;2023-02-15T05:36:10;1.20;99.90
22065;DHT22;11197;53.110;8.468;2023-02-15T05:38:37;1.20;99.90
22065;DHT22;11197;53.110;8.468;2023-02-15T05:41:06;1.20;99.90
22065;DHT22;11197;53.110;8.468;2023-02-15T05:43:33;1.20;99.90
22065;DHT22;11197;53.110;8.468;2023-02-15T05:45:59;1.20;99.90
22065;DHT22;11197;53.110;8.468;2023-02-15T05:48:26;1.20;99.90
22065;DHT22;11197;53.110;8.468;2023-02-15T05:51:10;1.20;99.90
22065;DHT22;11197;53.110;8.468;2023-02-15T05:53:41;1.20;99.90
22065;DHT22;11197;53.110;8.468;2023-02-15T05:56:09;1.20;99.90
22065;DHT22;11197;53.110;8.468;2023-02-15T05:58:38;1.20;99.90
22065;DHT22;11197;53.110;8.468;2023-02-15T06:01:18;1.20;99.90
22065;DHT22;11197;53.110;8.468;2023-02-15T06:03:46;1.20;99.90
22065;DHT22;11197;53.110;8.468;2023-02-15T06:06:12;1.10;99.90
22065;DHT22;11197;53.110;8.468;2023-02-15T06:08:38;1.10;99.90
22065;DHT22;11197;53.110;8.468;2023-02-15T06:11:07;1.10;99.90
22065;DHT22;11197;53.110;8.468;2023-02-15T06:13:34;1.10;99.90
22065;DHT22;11197;53.110;8.468;2023-02-15T06:15:59;1.00;99.90
22065;DHT22;11197;53.110;8.468;2023-02-15T06:18:25;1.00;99.90
22065;DHT22;11197;53.110;8.468;2023-02-15T06:20:51;1.00;99.90
22065;DHT22;11197;53.110;8.468;2023-02-15T06:23:17;0.90;99.90
22065;DHT22;11197;53.110;8.468;2023-02-15T06:25:46;0.90;99.90
22065;DHT22;11197;53.110;8.468;2023-02-15T06:28:12;1.00;99.90
22065;DHT22;11197;53.110;8.468;2023-02-15T06:30:41;1.00;99.90
22065;DHT22;11197;53.110;8.468;2023-02-15T06:33:07;0.90;99.90
22065;DHT22;11197;53.110;8.468;2023-02-15T06:35:33;1.00;99.90
22065;DHT22;11197;53.110;8.468;2023-02-15T06:37:58;1.10;99.90
22065;DHT22;11197;53.110;8.468;2023-02-15T06:40:24;1.30;99.90
22065;DHT22;11197;53.110;8.468;2023-02-15T06:42:50;1.40;99.90
22065;DHT22;11197;53.110;8.468;2023-02-15T06:45:16;1.40;99.90
22065;DHT22;11197;53.110;8.468;2023-02-15T06:47:42;1.30;99.90
22065;DHT22;11197;53.110;8.468;2023-02-15T06:50:08;1.30;99.90
22065;DHT22;11197;53.110;8.468;2023-02-15T06:52:34;1.20;99.90
22065;DHT22;11197;53.110;8.468;2023-02-15T06:55:00;2.00;99.90
22065;DHT22;11197;53.110;8.468;2023-02-15T06:57:26;2.40;99.90
22065;DHT22;11197;53.110;8.468;2023-02-15T06:59:52;2.40;99.90
22065;DHT22;11197;53.110;8.468;2023-02-15T07:02:18;2.40;99.90
22065;DHT22;11197;53.110;8.468;2023-02-15T07:04:44;2.20;99.90
22065;DHT22;11197;53.110;8.468;2023-02-15T07:07:11;2.00;99.90
22065;DHT22;11197;53.110;8.468;2023-02-15T07:09:38;1.80;99.90
22065;DHT22;11197;53.110;8.468;2023-02-15T07:12:04;1.60;99.90
22065;DHT22;11197;53.110;8.468;2023-02-15T07:14:49;1.50;99.90
22065;DHT22;11197;53.110;8.468;2023-02-15T07:17:15;1.40;99.90
22065;DHT22;11197;53.110;8.468;2023-02-15T07:19:43;1.30;99.90
22065;DHT22;11197;53.110;8.468;2023-02-15T07:22:09;1.20;99.90
22065;DHT22;11197;53.110;8.468;2023-02-15T07:24:35;1.10;99.90
22065;DHT22;11197;53.110;8.468;2023-02-15T07:27:01;1.10;99.90
22065;DHT22;11197;53.110;8.468;2023-02-15T07:29:27;1.00;99.90
22065;DHT22;11197;53.110;8.468;2023-02-15T07:31:52;1.00;99.90
22065;DHT22;11197;53.110;8.468;2023-02-15T07:34:18;0.90;99.90
22065;DHT22;11197;53.110;8.468;2023-02-15T07:36:44;0.90;99.90
22065;DHT22;11197;53.110;8.468;2023-02-15T07:39:11;0.90;99.90
22065;DHT22;11197;53.110;8.468;2023-02-15T07:41:37;0.90;99.90
22065;DHT22;11197;53.110;8.468;2023-02-15T07:44:14;0.80;99.90
22065;DHT22;11197;53.110;8.468;2023-02-15T07:46:40;0.80;99.90
22065;DHT22;11197;53.110;8.468;2023-02-15T07:49:07;0.80;99.90
22065;DHT22;11197;53.110;8.468;2023-02-15T07:51:32;0.80;99.90
22065;DHT22;11197;53.110;8.468;2023-02-15T07:53:58;0.80;99.90
22065;DHT22;11197;53.110;8.468;2023-02-15T07:56:24;0.80;99.90
22065;DHT22;11197;53.110;8.468;2023-02-15T07:58:50;0.80;99.90
22065;DHT22;11197;53.110;8.468;2023-02-15T08:01:17;0.80;99.90
22065;DHT22;11197;53.110;8.468;2023-02-15T08:03:43;0.80;99.90
22065;DHT22;11197;53.110;8.468;2023-02-15T08:06:09;0.80;99.90
22065;DHT22;11197;53.110;8.468;2023-02-15T08:08:37;0.80;99.90
22065;DHT22;11197;53.110;8.468;2023-02-15T08:11:04;0.80;99.90
22065;DHT22;11197;53.110;8.468;2023-02-15T08:13:54;0.80;99.90
22065;DHT22;11197;53.110;8.468;2023-02-15T08:18:46;1.30;99.90
22065;DHT22;11197;53.110;8.468;2023-02-15T08:21:13;1.80;99.90
22065;DHT22;11197;53.110;8.468;2023-02-15T08:23:39;2.00;99.90
22065;DHT22;11197;53.110;8.468;2023-02-15T08:26:05;2.10;99.90
22065;DHT22;11197;53.110;8.468;2023-02-15T08:28:31;2.10;99.90
22065;DHT22;11197;53.110;8.468;2023-02-15T08:31:08;2.00;99.90
22065;DHT22;11197;53.110;8.468;2023-02-15T08:33:35;1.90;99.90
22065;DHT22;11197;53.110;8.468;2023-02-15T08:36:07;1.80;99.90
22065;DHT22;11197;53.110;8.468;2023-02-15T08:38:33;1.70;99.90
22065;DHT22;11197;53.110;8.468;2023-02-15T08:41:13;1.60;99.90
22065;DHT22;11197;53.110;8.468;2023-02-15T08:43:40;1.60;99.90
22065;DHT22;11197;53.110;8.468;2023-02-15T08:46:06;1.60;99.90
22065;DHT22;11197;53.110;8.468;2023-02-15T08:48:32;1.50;99.90
22065;DHT22;11197;53.110;8.468;2023-02-15T08:50:58;1.50;99.90
22065;DHT22;11197;53.110;8.468;2023-02-15T08:53:28;1.50;99.90
22065;DHT22;11197;53.110;8.468;2023-02-15T08:55:57;1.50;99.90
22065;DHT22;11197;53.110;8.468;2023-02-15T08:58:24;1.50;99.90
22065;DHT22;11197;53.110;8.468;2023-02-15T09:00:50;1.50;99.90
22065;DHT22;11197;53.110;8.468;2023-02-15T09:03:16;1.50;99.90
22065;DHT22;11197;53.110;8.468;2023-02-15T09:05:42;1.50;99.90
22065;DHT22;11197;53.110;8.468;2023-02-15T09:08:08;1.60;99.90
22065;DHT22;11197;53.110;8.468;2023-02-15T09:10:34;1.60;99.90
22065;DHT22;11197;53.110;8.468;2023-02-15T09:13:00;1.60;99.90
22065;DHT22;11197;53.110;8.468;2023-02-15T09:15:27;1.60;99.90
22065;DHT22;11197;53.110;8.468;2023-02-15T09:17:53;1.60;99.90
22065;DHT22;11197;53.110;8.468;2023-02-15T09:20:19;1.60;99.90
22065;DHT22;11197;53.110;8.468;2023-02-15T09:22:44;1.70;99.90
22065;DHT22;11197;53.110;8.468;2023-02-15T09:25:10;1.70;99.90
22065;DHT22;11197;53.110;8.468;2023-02-15T09:27:38;1.80;99.90
22065;DHT22;11197;53.110;8.468;2023-02-15T09:30:06;1.80;99.90
22065;DHT22;11197;53.110;8.468;2023-02-15T09:32:32;1.80;99.90
22065;DHT22;11197;53.110;8.468;2023-02-15T09:34:57;1.90;99.90
22065;DHT22;11197;53.110;8.468;2023-02-15T09:37:23;1.90;99.90
22065;DHT22;11197;53.110;8.468;2023-02-15T09:39:49;2.00;99.90
22065;DHT22;11197;53.110;8.468;2023-02-15T09:55:30;2.40;99.90
22065;DHT22;11197;53.110;8.468;2023-02-15T10:08:21;2.70;99.90
22065;DHT22;11197;53.110;8.468;2023-02-15T10:11:00;2.70;99.90
22065;DHT22;11197;53.110;8.468;2023-02-15T10:16:54;2.90;99.90
22065;DHT22;11197;53.110;8.468;2023-02-15T10:25:34;3.10;99.90
22065;DHT22;11197;53.110;8.468;2023-02-15T10:27:32;3.30;99.90
22065;DHT22;11197;53.110;8.468;2023-02-15T10:30:11;3.40;99.90
22065;DHT22;11197;53.110;8.468;2023-02-15T10:32:50;3.50;99.90
22065;DHT22;11197;53.110;8.468;2023-02-15T10:38:13;3.80;99.90
22065;DHT22;11197;53.110;8.468;2023-02-15T10:40:57;3.80;99.90
22065;DHT22;11197;53.110;8.468;2023-02-15T10:52:21;4.20;99.90
22065;DHT22;11197;53.110;8.468;2023-02-15T10:58:14;4.30;99.90
22065;DHT22;11197;53.110;8.468;2023-02-15T11:00:46;4.40;99.90
22065;DHT22;11197;53.110;8.468;2023-02-15T11:08:21;4.70;99.90
22065;DHT22;11197;53.110;8.468;2023-02-15T11:11:02;4.70;99.90
22065;DHT22;11197;53.110;8.468;2023-02-15T11:13:34;4.80;99.90
22065;DHT22;11197;53.110;8.468;2023-02-15T11:18:31;5.00;99.90
22065;DHT22;11197;53.110;8.468;2023-02-15T11:21:08;5.00;99.90
22065;DHT22;11197;53.110;8.468;2023-02-15T11:23:38;5.10;99.90
22065;DHT22;11197;53.110;8.468;2023-02-15T11:26:13;5.10;99.90
22065;DHT22;11197;53.110;8.468;2023-02-15T11:31:57;5.30;99.90
22065;DHT22;11197;53.110;8.468;2023-02-15T11:34:37;5.50;99.90
22065;DHT22;11197;53.110;8.468;2023-02-15T11:37:18;5.70;99.90
22065;DHT22;11197;53.110;8.468;2023-02-15T11:39:45;5.80;99.90
22065;DHT22;11197;53.110;8.468;2023-02-15T11:42:20;5.80;99.90
22065;DHT22;11197;53.110;8.468;2023-02-15T11:45:15;6.00;99.90
22065;DHT22;11197;53.110;8.468;2023-02-15T11:47:43;6.00;99.90
22065;DHT22;11197;53.110;8.468;2023-02-15T11:50:20;6.00;99.90
22065;DHT22;11197;53.110;8.468;2023-02-15T11:52:52;6.00;99.90
22065;DHT22;11197;53.110;8.468;2023-02-15T11:55:21;6.10;99.90
22065;DHT22;11197;53.110;8.468;2023-02-15T12:00:47;6.20;99.90
22065;DHT22;11197;53.110;8.468;2023-02-15T12:03:21;6.30;99.90
22065;DHT22;11197;53.110;8.468;2023-02-15T12:05:53;6.30;99.90
22065;DHT22;11197;53.110;8.468;2023-02-15T12:08:22;6.30;99.90
22065;DHT22;11197;53.110;8.468;2023-02-15T12:13:18;6.40;99.90
22065;DHT22;11197;53.110;8.468;2023-02-15T12:15:47;6.50;99.90
22065;DHT22;11197;53.110;8.468;2023-02-15T12:18:39;6.50;99.90
22065;DHT22;11197;53.110;8.468;2023-02-15T12:23:56;6.60;99.90
22065;DHT22;11197;53.110;8.468;2023-02-15T12:26:31;6.80;99.90
22065;DHT22;11197;53.110;8.468;2023-02-15T12:29:00;6.80;99.90
22065;DHT22;11197;53.110;8.468;2023-02-15T12:31:36;6.80;99.90
22065;DHT22;11197;53.110;8.468;2023-02-15T12:34:49;6.80;99.90
22065;DHT22;11197;53.110;8.468;2023-02-15T12:37:00;7.00;99.90
22065;DHT22;11197;53.110;8.468;2023-02-15T12:39:31;7.00;99.90
22065;DHT22;11197;53.110;8.468;2023-02-15T12:42:02;7.00;99.90
22065;DHT22;11197;53.110;8.468;2023-02-15T12:44:33;7.00;99.90
22065;DHT22;11197;53.110;8.468;2023-02-15T12:49:26;7.10;99.90
22065;DHT22;11197;53.110;8.468;2023-02-15T12:51:56;7.20;99.90
22065;DHT22;11197;53.110;8.468;2023-02-15T12:54:30;7.30;99.90
22065;DHT22;11197;53.110;8.468;2023-02-15T12:56:58;7.30;99.90
22065;DHT22;11197;53.110;8.468;2023-02-15T12:59:24;7.30;99.90
22065;DHT22;11197;53.110;8.468;2023-02-15T13:01:52;7.40;99.90
22065;DHT22;11197;53.110;8.468;2023-02-15T13:06:49;7.40;99.90
22065;DHT22;11197;53.110;8.468;2023-02-15T13:09:33;7.60;99.90
22065;DHT22;11197;53.110;8.468;2023-02-15T13:14:48;7.80;99.90
22065;DHT22;11197;53.110;8.468;2023-02-15T13:17:19;7.90;99.90
22065;DHT22;11197;53.110;8.468;2023-02-15T13:19:49;8.00;99.90
22065;DHT22;11197;53.110;8.468;2023-02-15T13:22:25;8.00;99.90
22065;DHT22;11197;53.110;8.468;2023-02-15T13:24:57;8.10;99.90
22065;DHT22;11197;53.110;8.468;2023-02-15T13:27:32;8.20;99.90
22065;DHT22;11197;53.110;8.468;2023-02-15T13:30:03;8.30;99.90
22065;DHT22;11197;53.110;8.468;2023-02-15T13:32:38;8.30;99.90
22065;DHT22;11197;53.110;8.468;2023-02-15T13:35:15;8.40;99.90
22065;DHT22;11197;53.110;8.468;2023-02-15T13:40:51;8.50;99.90
22065;DHT22;11197;53.110;8.468;2023-02-15T13:51:36;8.50;99.90
22065;DHT22;11197;53.110;8.468;2023-02-15T14:00:12;8.80;99.90
22065;DHT22;11197;53.110;8.468;2023-02-15T14:03:35;8.80;99.90
22065;DHT22;11197;53.110;8.468;2023-02-15T14:08:37;8.80;99.90
22065;DHT22;11197;53.110;8.468;2023-02-15T14:16:49;8.70;99.90
22065;DHT22;11197;53.110;8.468;2023-02-15T14:22:06;8.70;99.90
22065;DHT22;11197;53.110;8.468;2023-02-15T14:25:30;8.70;99.90
22065;DHT22;11197;53.110;8.468;2023-02-15T14:30:37;8.70;99.90
22065;DHT22;11197;53.110;8.468;2023-02-15T14:33:36;8.70;99.90
22065;DHT22;11197;53.110;8.468;2023-02-15T14:36:06;8.70;99.90
22065;DHT22;11197;53.110;8.468;2023-02-15T14:38:55;8.80;99.90
22065;DHT22;11197;53.110;8.468;2023-02-15T14:41:48;8.80;99.90
22065;DHT22;11197;53.110;8.468;2023-02-15T14:44:42;8.80;99.90
22065;DHT22;11197;53.110;8.468;2023-02-15T14:47:22;8.70;99.90
22065;DHT22;11197;53.110;8.468;2023-02-15T14:49:48;8.70;99.90
22065;DHT22;11197;53.110;8.468;2023-02-15T14:52:14;8.70;99.90
22065;DHT22;11197;53.110;8.468;2023-02-15T15:09:41;9.10;99.90
22065;DHT22;11197;53.110;8.468;2023-02-15T15:14:48;9.20;99.90
22065;DHT22;11197;53.110;8.468;2023-02-15T15:23:38;9.40;99.90
22065;DHT22;11197;53.110;8.468;2023-02-15T15:37:04;9.60;99.90
22065;DHT22;11197;53.110;8.468;2023-02-15T15:42:49;9.60;99.90
22065;DHT22;11197;53.110;8.468;2023-02-15T15:50:45;9.70;99.90
22065;DHT22;11197;53.110;8.468;2023-02-15T15:53:23;9.70;99.90
22065;DHT22;11197;53.110;8.468;2023-02-15T15:55:54;9.70;99.90
22065;DHT22;11197;53.110;8.468;2023-02-15T15:58:22;9.70;99.90
22065;DHT22;11197;53.110;8.468;2023-02-15T16:00:59;9.70;99.90
22065;DHT22;11197;53.110;8.468;2023-02-15T16:03:28;9.70;99.90
22065;DHT22;11197;53.110;8.468;2023-02-15T16:05:54;9.70;99.90
22065;DHT22;11197;53.110;8.468;2023-02-15T16:08:36;9.60;99.90
22065;DHT22;11197;53.110;8.468;2023-02-15T16:11:24;9.60;99.90
22065;DHT22;11197;53.110;8.468;2023-02-15T16:13:51;9.60;99.90
22065;DHT22;11197;53.110;8.468;2023-02-15T16:16:24;9.60;99.90
22065;DHT22;11197;53.110;8.468;2023-02-15T16:18:51;9.50;99.90
22065;DHT22;11197;53.110;8.468;2023-02-15T16:21:21;9.50;99.90
22065;DHT22;11197;53.110;8.468;2023-02-15T16:24:28;9.40;99.90
22065;DHT22;11197;53.110;8.468;2023-02-15T16:29:49;9.40;99.90
22065;DHT22;11197;53.110;8.468;2023-02-15T16:32:24;9.30;99.90
22065;DHT22;11197;53.110;8.468;2023-02-15T16:34:58;9.30;99.90
22065;DHT22;11197;53.110;8.468;2023-02-15T16:37:33;9.30;99.90
22065;DHT22;11197;53.110;8.468;2023-02-15T16:39:59;9.30;99.90
22065;DHT22;11197;53.110;8.468;2023-02-15T16:42:25;9.20;99.90
22065;DHT22;11197;53.110;8.468;2023-02-15T16:44:55;9.20;99.90
22065;DHT22;11197;53.110;8.468;2023-02-15T16:47:26;9.10;99.90
22065;DHT22;11197;53.110;8.468;2023-02-15T16:49:57;9.10;99.90
22065;DHT22;11197;53.110;8.468;2023-02-15T16:52:25;9.10;99.90
22065;DHT22;11197;53.110;8.468;2023-02-15T16:54:55;9.00;99.90
22065;DHT22;11197;53.110;8.468;2023-02-15T16:57:31;9.00;99.90
22065;DHT22;11197;53.110;8.468;2023-02-15T17:00:06;8.90;99.90
22065;DHT22;11197;53.110;8.468;2023-02-15T17:02:34;8.90;99.90
22065;DHT22;11197;53.110;8.468;2023-02-15T17:05:14;8.80;99.90
22065;DHT22;11197;53.110;8.468;2023-02-15T17:08:14;8.70;99.90
22065;DHT22;11197;53.110;8.468;2023-02-15T17:10:40;8.70;99.90
22065;DHT22;11197;53.110;8.468;2023-02-15T17:13:15;8.60;99.90
22065;DHT22;11197;53.110;8.468;2023-02-15T17:18:38;8.60;99.90
22065;DHT22;11197;53.110;8.468;2023-02-15T17:21:27;8.60;99.90
22065;DHT22;11197;53.110;8.468;2023-02-15T17:24:01;8.50;99.90
22065;DHT22;11197;53.110;8.468;2023-02-15T17:26:35;8.50;99.90
22065;DHT22;11197;53.110;8.468;2023-02-15T17:29:27;8.50;99.90
22065;DHT22;11197;53.110;8.468;2023-02-15T17:31:56;8.40;99.90
22065;DHT22;11197;53.110;8.468;2023-02-15T17:37:11;8.30;99.90
22065;DHT22;11197;53.110;8.468;2023-02-15T17:39:37;8.30;99.90
22065;DHT22;11197;53.110;8.468;2023-02-15T17:42:03;8.30;99.90
22065;DHT22;11197;53.110;8.468;2023-02-15T17:44:29;8.20;99.90
22065;DHT22;11197;53.110;8.468;2023-02-15T17:46:55;8.20;99.90
22065;DHT22;11197;53.110;8.468;2023-02-15T17:49:25;8.20;99.90
22065;DHT22;11197;53.110;8.468;2023-02-15T17:52:00;8.10;99.90
22065;DHT22;11197;53.110;8.468;2023-02-15T17:54:27;8.10;99.90
22065;DHT22;11197;53.110;8.468;2023-02-15T17:57:12;8.10;99.90
22065;DHT22;11197;53.110;8.468;2023-02-15T17:59:39;8.10;99.90
22065;DHT22;11197;53.110;8.468;2023-02-15T18:02:23;8.00;99.90
22065;DHT22;11197;53.110;8.468;2023-02-15T18:05:14;8.00;99.90
22065;DHT22;11197;53.110;8.468;2023-02-15T18:07:59;7.90;99.90
22065;DHT22;11197;53.110;8.468;2023-02-15T18:10:44;7.90;99.90
22065;DHT22;11197;53.110;8.468;2023-02-15T18:13:29;7.90;99.90
22065;DHT22;11197;53.110;8.468;2023-02-15T18:15:55;7.90;99.90
22065;DHT22;11197;53.110;8.468;2023-02-15T18:18:21;7.90;99.90
22065;DHT22;11197;53.110;8.468;2023-02-15T18:20:49;7.80;99.90
22065;DHT22;11197;53.110;8.468;2023-02-15T18:23:15;7.80;99.90
22065;DHT22;11197;53.110;8.468;2023-02-15T18:25:41;7.70;99.90
22065;DHT22;11197;53.110;8.468;2023-02-15T18:28:10;7.70;99.90
22065;DHT22;11197;53.110;8.468;2023-02-15T18:30:36;7.70;99.90
22065;DHT22;11197;53.110;8.468;2023-02-15T18:33:09;7.70;99.90
22065;DHT22;11197;53.110;8.468;2023-02-15T18:35:40;7.70;99.90
22065;DHT22;11197;53.110;8.468;2023-02-15T18:38:09;7.60;99.90
22065;DHT22;11197;53.110;8.468;2023-02-15T18:40:41;7.60;99.90
22065;DHT22;11197;53.110;8.468;2023-02-15T18:43:16;7.60;99.90
22065;DHT22;11197;53.110;8.468;2023-02-15T18:45:42;7.60;99.90
22065;DHT22;11197;53.110;8.468;2023-02-15T18:48:10;7.90;99.90
22065;DHT22;11197;53.110;8.468;2023-02-15T18:50:38;8.00;99.90
22065;DHT22;11197;53.110;8.468;2023-02-15T18:53:06;8.10;99.90
22065;DHT22;11197;53.110;8.468;2023-02-15T18:55:36;8.00;99.90
22065;DHT22;11197;53.110;8.468;2023-02-15T18:58:02;7.90;99.90
22065;DHT22;11197;53.110;8.468;2023-02-15T19:00:32;7.90;99.90
22065;DHT22;11197;53.110;8.468;2023-02-15T19:03:01;7.80;99.90
22065;DHT22;11197;53.110;8.468;2023-02-15T19:05:28;7.70;99.90
22065;DHT22;11197;53.110;8.468;2023-02-15T19:07:56;7.60;99.90
22065;DHT22;11197;53.110;8.468;2023-02-15T19:10:25;7.50;99.90
22065;DHT22;11197;53.110;8.468;2023-02-15T19:12:52;7.50;99.90
22065;DHT22;11197;53.110;8.468;2023-02-15T19:15:21;7.40;99.90
22065;DHT22;11197;53.110;8.468;2023-02-15T19:17:47;7.40;99.90